Time;durP1;ratioP1;P1;durP2;ratioP2;P2;SDS_P1;SDS_P2;PMS_P1;PMS_P2;Temp;Humidity;BMP_temperature;BMP_pressure;BME280_temperature;BME280_humidity;BME280_pressure;Samples;Min_cycle;Max_cycle;Signal;HPM_P1;HPM_P2
2022/09/22 08:11:47;;;;;;;;;;;;;;;4.58;100.00;100240.41;5394013;23;19947;-87
2022/09/22 08:14:13;;;;;;;;;;;;;;;4.55;100.00;100239.56;4927414;29;20362;-84
2022/09/22 08:16:39;;;;;;;;;;;;;;;4.55;100.00;100231.69;4916315;29;19919;-84
2022/09/22 08:19:11;;;;;;;;;;;;;;;4.56;100.00;100229.91;4925761;29;20334;-85
2022/09/22 08:21:37;;;;;;;;;;;;;;;4.53;100.00;100228.22;4922271;29;19923;-85
2022/09/22 08:24:03;;;;;;;;;;;;;;;4.58;100.00;100229.91;4927244;29;20025;-85
2022/09/22 08:26:29;;;;;;;;;;;;;;;4.60;100.00;100228.16;4924805;29;20017;-86
2022/09/22 08:28:54;;;;;;;;;;;;;;;4.65;100.00;100226.31;4927497;29;20447;-85
2022/09/22 08:31:20;;;;;;;;;;;;;;;4.65;100.00;100226.31;4925765;29;20409;-84
2022/09/22 08:33:47;;;;;;;;;;;;;;;4.66;100.00;100218.44;4927029;29;19919;-87
2022/09/22 08:36:13;;;;;;;;;;;;;;;4.65;100.00;100226.31;4926816;29;20041;-86
2022/09/22 08:38:38;;;;;;;;;;;;;;;4.71;100.00;100221.88;4926595;29;19968;-84
2022/09/22 08:41:16;;;;;;;;;;;;;;;4.67;100.00;100224.53;4924488;29;19926;-84
2022/09/22 08:43:54;;;;;;;;;;;;;;;4.72;100.00;100218.38;4926426;29;19926;-85
2022/09/22 08:46:29;;;;;;;;;;;;;;;4.70;100.00;100219.25;4924961;29;20335;-85
2022/09/22 08:51:54;;;;;;;;;;;;;;;4.74;100.00;100218.34;4918178;29;19923;-84
2022/09/22 08:54:22;;;;;;;;;;;;;;;4.78;100.00;100219.19;4925444;29;19976;-87
2022/09/22 08:56:56;;;;;;;;;;;;;;;4.72;100.00;100217.47;4921948;29;19919;-85
2022/09/22 08:59:22;;;;;;;;;;;;;;;4.62;100.00;100213.22;4925799;29;19928;-85
2022/09/22 09:01:51;;;;;;;;;;;;;;;4.69;100.00;100218.41;4940118;29;19926;-85
2022/09/22 09:04:35;;;;;;;;;;;;;;;4.68;100.00;100210.53;4925293;29;20010;-85
2022/09/22 09:07:09;;;;;;;;;;;;;;;4.84;100.00;100216.47;4925464;29;19923;-85
2022/09/22 09:09:53;;;;;;;;;;;;;;;4.73;100.00;100209.59;4926201;29;19919;-85
2022/09/22 09:12:27;;;;;;;;;;;;;;;4.77;100.00;100209.53;4925545;29;19923;-84
2022/09/22 09:14:52;;;;;;;;;;;;;;;4.79;100.00;100202.53;4924689;29;19923;-84
2022/09/22 09:17:26;;;;;;;;;;;;;;;4.75;100.00;100200.84;4925305;29;19948;-84
2022/09/22 09:19:54;;;;;;;;;;;;;;;4.90;100.00;100201.50;4924306;29;19919;-84
2022/09/22 09:22:30;;;;;;;;;;;;;;;4.87;100.00;100201.53;4920918;29;20425;-85
2022/09/22 09:24:59;;;;;;;;;;;;;;;4.84;100.00;100205.97;4926109;29;19918;-84
2022/09/22 09:27:29;;;;;;;;;;;;;;;4.79;100.00;100206.03;4925139;29;20010;-85
2022/09/22 09:30:16;;;;;;;;;;;;;;;4.82;100.00;100198.13;4924854;29;19919;-84
2022/09/22 09:32:59;;;;;;;;;;;;;;;4.82;100.00;100197.22;4923635;29;20369;-84
2022/09/22 09:35:25;;;;;;;;;;;;;;;4.88;100.00;100199.78;4925542;29;19919;-84
2022/09/22 09:37:52;;;;;;;;;;;;;;;4.87;100.00;100196.28;4924583;29;19927;-84
2022/09/22 09:40:19;;;;;;;;;;;;;;;4.88;100.00;100198.03;4924798;29;19927;-85
2022/09/22 09:42:46;;;;;;;;;;;;;;;4.90;100.00;100206.75;4925414;29;19930;-84
2022/09/22 09:45:16;;;;;;;;;;;;;;;4.89;100.00;100205.00;4924709;29;19919;-84
2022/09/22 09:47:41;;;;;;;;;;;;;;;4.96;100.00;100197.91;4924734;29;19919;-84
2022/09/22 09:50:09;;;;;;;;;;;;;;;4.95;100.00;100198.81;4924100;29;20271;-84
2022/09/22 09:52:37;;;;;;;;;;;;;;;4.94;100.00;100190.97;4939425;28;19927;-84
2022/09/22 09:55:10;;;;;;;;;;;;;;;4.95;100.00;100195.34;4924461;29;19923;-84
2022/09/22 09:57:56;;;;;;;;;;;;;;;4.91;100.00;100191.84;4923851;29;19927;-85
2022/09/22 10:00:30;;;;;;;;;;;;;;;4.94;100.00;100191.81;4924289;29;19919;-84
2022/09/22 10:03:02;;;;;;;;;;;;;;;4.90;100.00;100183.13;4924906;29;19923;-84
2022/09/22 10:05:28;;;;;;;;;;;;;;;4.93;100.00;100197.97;4939535;29;20384;-85
2022/09/22 10:07:59;;;;;;;;;;;;;;;4.99;100.00;100189.13;4924547;29;20409;-84
2022/09/22 10:10:27;;;;;;;;;;;;;;;5.13;100.00;100188.94;4923250;29;19926;-84
2022/09/22 10:12:52;;;;;;;;;;;;;;;5.11;100.00;100186.34;4925409;29;19930;-85
2022/09/22 10:15:25;;;;;;;;;;;;;;;5.30;100.00;100186.06;4925412;29;19931;-84
2022/09/22 10:17:50;;;;;;;;;;;;;;;5.15;100.00;100182.78;4925298;29;20275;-85
2022/09/22 10:20:15;;;;;;;;;;;;;;;5.16;100.00;100178.41;4923974;29;19929;-84
2022/09/22 10:22:41;;;;;;;;;;;;;;;5.14;100.00;100182.78;4925181;29;19919;-85
2022/09/22 10:25:27;;;;;;;;;;;;;;;5.21;100.00;100177.44;4924931;29;19975;-84
2022/09/22 10:27:58;;;;;;;;;;;;;;;5.14;100.00;100172.28;4923515;29;19970;-84
2022/09/22 10:30:24;;;;;;;;;;;;;;;5.13;100.00;100170.56;4925362;29;20009;-85
2022/09/22 10:33:13;;;;;;;;;;;;;;;5.18;100.00;100169.59;4923764;29;19920;-86
2022/09/22 10:35:39;;;;;;;;;;;;;;;5.26;100.00;100162.50;4924499;29;19966;-84
2022/09/22 10:38:28;;;;;;;;;;;;;;;5.20;100.00;100164.31;4925585;29;19919;-84
2022/09/22 10:41:06;;;;;;;;;;;;;;;5.08;100.00;100163.59;4923826;29;19966;-84
2022/09/22 10:43:50;;;;;;;;;;;;;;;5.27;100.00;100152.84;4925004;29;19925;-84
2022/09/22 10:49:53;;;;;;;;;;;;;;;5.22;100.00;100150.28;4941954;28;19945;-84
2022/09/22 10:52:33;;;;;;;;;;;;;;;5.32;100.00;100151.00;4926963;29;20384;-86
2022/09/22 10:55:21;;;;;;;;;;;;;;;5.40;100.00;100156.13;4938236;29;20279;-84
2022/09/22 10:57:50;;;;;;;;;;;;;;;5.36;100.00;100144.81;4922376;29;19929;-84
2022/09/22 11:00:19;;;;;;;;;;;;;;;5.34;100.00;100143.94;4924683;29;20014;-84
2022/09/22 11:02:56;;;;;;;;;;;;;;;5.30;100.00;100137.03;4924923;29;19925;-84
2022/09/22 11:14:40;;;;;;;;;;;;;;;5.36;100.00;100130.78;4949058;28;19943;-86
2022/09/22 11:17:09;;;;;;;;;;;;;;;5.39;100.00;100136.00;4926527;28;19923;-83
2022/09/22 11:19:46;;;;;;;;;;;;;;;5.42;100.00;100133.31;4943730;29;19918;-83
2022/09/22 11:22:14;;;;;;;;;;;;;;;5.40;100.00;100128.09;4943287;29;20328;-85
2022/09/22 11:24:43;;;;;;;;;;;;;;;5.40;100.00;100122.84;4942921;29;20302;-84
2022/09/22 11:27:15;;;;;;;;;;;;;;;5.43;100.00;100127.19;4942387;29;19918;-83
2022/09/22 11:29:51;;;;;;;;;;;;;;;5.45;100.00;100128.03;4942895;29;19929;-83
2022/09/22 11:32:38;;;;;;;;;;;;;;;5.40;100.00;100127.22;4943454;28;20349;-84
2022/09/22 11:35:07;;;;;;;;;;;;;;;5.50;100.00;100126.19;4946636;28;20396;-84
2022/09/22 11:37:32;;;;;;;;;;;;;;;5.48;100.00;100120.09;4944624;29;19923;-86
2022/09/22 11:40:16;;;;;;;;;;;;;;;5.51;100.00;100127.91;4929727;29;19921;-83
2022/09/22 11:45:56;;;;;;;;;;;;;;;5.56;100.00;100115.56;4893827;29;20426;-88
2022/09/22 11:57:10;;;;;;;;;;;;;;;5.68;100.00;100100.47;4945783;23;19942;-85
2022/09/22 11:59:47;;;;;;;;;;;;;;;6.03;100.00;100099.88;4967384;28;20049;-85
2022/09/22 12:02:17;;;;;;;;;;;;;;;5.81;100.00;100097.59;4967502;28;19918;-84
2022/09/22 12:04:45;;;;;;;;;;;;;;;5.73;100.00;100093.38;4966909;28;19918;-84
2022/09/22 12:07:22;;;;;;;;;;;;;;;5.79;100.00;100099.41;4985222;28;19929;-84
2022/09/22 12:09:59;;;;;;;;;;;;;;;5.70;100.00;100096.06;4985072;28;19921;-85
2022/09/22 12:12:27;;;;;;;;;;;;;;;5.75;100.00;100088.97;4965773;28;19979;-85
2022/09/22 12:15:16;;;;;;;;;;;;;;;5.74;100.00;100087.22;4966736;28;19918;-85
2022/09/22 12:17:49;;;;;;;;;;;;;;;5.93;100.00;100085.97;4963543;28;20177;-84
2022/09/22 12:20:17;;;;;;;;;;;;;;;6.12;100.00;100069.88;4966367;28;19929;-85
2022/09/22 12:22:48;;;;;;;;;;;;;;;6.05;100.00;100073.50;4985229;28;19925;-85
2022/09/22 12:25:14;;;;;;;;;;;;;;;5.99;100.00;100072.72;4966137;28;19922;-84
2022/09/22 12:27:39;;;;;;;;;;;;;;;6.11;100.00;100062.88;4966268;28;20297;-88
2022/09/22 12:30:06;;;;;;;;;;;;;;;5.90;100.00;100058.88;4967555;28;19976;-85
2022/09/22 12:32:37;;;;;;;;;;;;;;;6.00;100.00;100061.31;4963325;28;19925;-85
2022/09/22 12:35:03;;;;;;;;;;;;;;;5.89;100.00;100058.00;4967021;28;19918;-85
2022/09/22 12:37:30;;;;;;;;;;;;;;;5.82;100.00;100056.38;4966949;28;19926;-85
2022/09/22 12:40:01;;;;;;;;;;;;;;;5.97;100.00;100045.59;4981881;28;20340;-85
2022/09/22 12:42:34;;;;;;;;;;;;;;;6.16;100.00;100050.50;4966034;28;19922;-85
2022/09/22 12:45:18;;;;;;;;;;;;;;;5.96;100.00;100046.50;4966622;28;20001;-85
2022/09/22 12:47:48;;;;;;;;;;;;;;;6.06;100.00;100033.16;4984594;28;20037;-85
2022/09/22 12:50:22;;;;;;;;;;;;;;;5.90;100.00;100033.41;4984371;28;19925;-85
2022/09/22 12:52:49;;;;;;;;;;;;;;;6.00;100.00;100034.16;4982011;28;19929;-85
2022/09/22 12:55:28;;;;;;;;;;;;;;;6.06;100.00;100030.53;4966995;28;19941;-86
2022/09/22 12:57:54;;;;;;;;;;;;;;;6.32;100.00;100036.13;4966700;28;19975;-85
2022/09/22 13:00:33;;;;;;;;;;;;;;;6.46;100.00;100027.94;4984298;28;20327;-84
2022/09/22 13:02:59;;;;;;;;;;;;;;;6.66;100.00;100021.34;4966229;28;20378;-85
2022/09/22 13:05:24;;;;;;;;;;;;;;;6.44;100.00;100019.19;4966711;28;19922;-85
2022/09/22 13:07:51;;;;;;;;;;;;;;;6.41;100.00;100018.38;4966830;28;19952;-85
2022/09/22 13:10:20;;;;;;;;;;;;;;;6.11;100.00;100026.03;4964962;28;20362;-84
2022/09/22 13:13:08;;;;;;;;;;;;;;;6.04;100.00;100029.69;4966819;28;20404;-85
2022/09/22 13:15:49;;;;;;;;;;;;;;;6.17;100.00;100018.00;4966452;28;19972;-84
2022/09/22 13:18:35;;;;;;;;;;;;;;;6.03;100.00;100020.06;4966442;28;19918;-85
2022/09/22 13:21:02;;;;;;;;;;;;;;;6.22;100.00;100012.66;4973489;28;19962;-84
2022/09/22 13:23:28;;;;;;;;;;;;;;;6.68;100.00;100014.25;4982652;28;19922;-85
2022/09/22 13:25:53;;;;;;;;;;;;;;;6.84;100.00;100020.88;4965108;28;19924;-85
2022/09/22 13:28:24;;;;;;;;;;;;;;;6.21;100.00;100017.06;4979915;28;20306;-85
2022/09/22 13:30:59;;;;;;;;;;;;;;;6.10;100.00;100009.38;4965457;28;19922;-84
2022/09/22 13:33:25;;;;;;;;;;;;;;;6.34;100.00;100002.72;4966126;28;19922;-85
2022/09/22 13:36:03;;;;;;;;;;;;;;;6.23;100.00;100007.34;4983372;28;19925;-84
2022/09/22 13:38:29;;;;;;;;;;;;;;;6.14;100.00;100007.56;4964970;28;19918;-85
2022/09/22 13:40:55;;;;;;;;;;;;;;;6.12;100.00;99998.84;4982217;28;19918;-85
2022/09/22 13:43:47;;;;;;;;;;;;;;;6.13;100.00;100001.44;4966369;28;20452;-85
2022/09/22 13:46:20;;;;;;;;;;;;;;;6.11;100.00;99999.72;4979445;28;19918;-85
2022/09/22 13:48:46;;;;;;;;;;;;;;;6.12;100.00;99990.94;4983228;28;19946;-85
2022/09/22 13:51:13;;;;;;;;;;;;;;;6.27;100.00;99989.72;4965823;28;19921;-84
2022/09/22 13:53:41;;;;;;;;;;;;;;;6.38;100.00;99971.06;4966304;28;19918;-84
2022/09/22 13:56:12;;;;;;;;;;;;;;;6.63;100.00;99966.97;4981331;28;19940;-85
2022/09/22 13:58:39;;;;;;;;;;;;;;;6.27;100.00;99966.94;4983187;28;20032;-84
2022/09/22 14:01:16;;;;;;;;;;;;;;;6.30;100.00;99973.88;4965704;28;19961;-84
2022/09/22 14:03:41;;;;;;;;;;;;;;;6.25;100.00;99965.22;4964733;28;19929;-84
2022/09/22 14:06:09;;;;;;;;;;;;;;;6.21;100.00;99969.69;4983043;28;19918;-84
2022/09/22 14:08:34;;;;;;;;;;;;;;;6.25;100.00;99973.13;4966371;28;20000;-84
2022/09/22 14:11:01;;;;;;;;;;;;;;;6.67;100.00;99968.63;4964205;28;20362;-85
2022/09/22 14:13:35;;;;;;;;;;;;;;;6.59;100.00;99965.31;4965331;28;19922;-84
2022/09/22 14:16:23;;;;;;;;;;;;;;;6.51;100.00;99961.97;4964093;28;20124;-84
2022/09/22 14:18:56;;;;;;;;;;;;;;;6.36;100.00;99958.81;4981641;28;20363;-84
2022/09/22 14:21:22;;;;;;;;;;;;;;;6.30;100.00;99958.09;4981784;28;19918;-84
2022/09/22 14:23:48;;;;;;;;;;;;;;;6.77;100.00;99950.00;4965353;28;19976;-84
2022/09/22 14:26:22;;;;;;;;;;;;;;;6.68;100.00;99954.56;4964579;28;19926;-85
2022/09/22 14:28:48;;;;;;;;;;;;;;;6.31;100.00;99960.69;4962476;28;19932;-84
2022/09/22 14:31:15;;;;;;;;;;;;;;;6.34;100.00;99957.97;4965692;28;19922;-84
2022/09/22 14:33:43;;;;;;;;;;;;;;;6.33;100.00;99947.50;4982709;28;19925;-84
2022/09/22 14:36:15;;;;;;;;;;;;;;;6.32;100.00;99951.03;4982658;28;20297;-85
2022/09/22 14:38:41;;;;;;;;;;;;;;;6.36;100.00;99948.28;4965527;28;19922;-85
2022/09/22 14:41:21;;;;;;;;;;;;;;;6.36;100.00;99948.28;4964086;28;20337;-85
2022/09/22 14:43:46;;;;;;;;;;;;;;;6.33;100.00;99948.38;4965499;28;20381;-85
2022/09/22 14:46:24;;;;;;;;;;;;;;;6.32;100.00;99949.25;4982604;28;19918;-85
2022/09/22 14:48:49;;;;;;;;;;;;;;;6.31;100.00;99944.88;4981299;28;19914;-85
2022/09/22 14:51:19;;;;;;;;;;;;;;;6.63;100.00;99945.06;4982956;28;19922;-88
2022/09/22 14:53:56;;;;;;;;;;;;;;;6.81;100.00;99933.19;4963820;28;20021;-85
2022/09/22 14:56:26;;;;;;;;;;;;;;;7.13;100.00;99932.34;4981282;28;19968;-85
2022/09/22 14:58:53;;;;;;;;;;;;;;;6.86;100.00;99929.56;4965145;28;19933;-85
2022/09/22 15:04:11;;;;;;;;;;;;;;;6.48;100.00;99930.50;4982781;28;19937;-85
2022/09/22 15:06:38;;;;;;;;;;;;;;;6.50;100.00;99933.94;4983249;28;19921;-85
2022/09/22 15:09:05;;;;;;;;;;;;;;;6.35;100.00;99932.53;4969900;28;20013;-85
2022/09/22 15:11:47;;;;;;;;;;;;;;;6.49;100.00;99935.72;4967647;28;20000;-85
2022/09/22 15:14:31;;;;;;;;;;;;;;;6.35;100.00;99930.78;4968639;28;19973;-85
2022/09/22 15:18:12;;;;;;;;;;;;;;;6.46;100.00;99932.28;4968256;28;19924;-87
2022/09/22 15:19:42;;;;;;;;;;;;;;;6.64;100.00;99926.59;4985988;28;19972;-86
2022/09/22 15:22:10;;;;;;;;;;;;;;;6.38;100.00;99921.91;4966193;28;20341;-87
2022/09/22 15:24:35;;;;;;;;;;;;;;;6.47;100.00;99928.75;4975562;28;20409;-85
2022/09/22 15:27:04;;;;;;;;;;;;;;;6.36;100.00;99923.72;4964964;28;20018;-85
2022/09/22 15:29:31;;;;;;;;;;;;;;;6.46;100.00;99921.75;4980319;28;20615;-85
2022/09/22 15:31:58;;;;;;;;;;;;;;;6.53;100.00;99918.09;4979919;28;19944;-84
2022/09/22 15:34:25;;;;;;;;;;;;;;;7.63;100.00;99902.88;4963184;28;20361;-85
2022/09/22 15:36:52;;;;;;;;;;;;;;;6.85;100.00;99911.16;4983854;28;19929;-85
2022/09/22 15:39:21;;;;;;;;;;;;;;;6.55;100.00;99908.38;4982253;28;20021;-87
2022/09/22 15:41:56;;;;;;;;;;;;;;;6.51;100.00;99901.44;4964909;28;19968;-89
2022/09/22 15:44:51;;;;;;;;;;;;;;;6.59;100.00;99904.78;5000600;23;20373;-85
2022/09/22 15:47:16;;;;;;;;;;;;;;;6.54;100.00;99906.63;4970252;28;19922;-85
2022/09/22 15:49:52;;;;;;;;;;;;;;;6.41;100.00;99913.09;4991677;28;19918;-88
2022/09/22 15:52:17;;;;;;;;;;;;;;;6.53;100.00;99904.91;5002262;28;19921;-89
2022/09/22 15:54:43;;;;;;;;;;;;;;;6.58;100.00;99910.06;4990922;28;19926;-84
2022/09/22 15:57:20;;;;;;;;;;;;;;;;;;;;;
2022/09/22 15:59:46;;;;;;;;;;;;;;;6.59;100.00;99909.16;4993824;28;19918;-84
2022/09/22 16:02:11;;;;;;;;;;;;;;;6.80;100.00;99906.00;4994384;28;20020;-85
2022/09/22 16:04:38;;;;;;;;;;;;;;;6.65;100.00;99899.34;4994638;28;19990;-85
2022/09/22 16:07:05;;;;;;;;;;;;;;;6.57;100.00;99903.91;4991931;28;19992;-85
2022/09/22 16:09:30;;;;;;;;;;;;;;;6.82;100.00;99906.81;4991447;28;19997;-85
2022/09/22 16:11:55;;;;;;;;;;;;;;;6.72;100.00;99903.56;4993055;28;20013;-84
2022/09/22 16:14:21;;;;;;;;;;;;;;;6.64;100.00;99900.25;4994890;28;19933;-85
2022/09/22 16:16:47;;;;;;;;;;;;;;;6.63;100.00;99902.91;4993792;28;20369;-85
2022/09/22 16:19:13;;;;;;;;;;;;;;;6.55;100.00;99911.00;4993495;28;19961;-86
2022/09/22 16:21:40;;;;;;;;;;;;;;;6.53;100.00;99905.78;4991167;28;19969;-84
2022/09/22 16:24:07;;;;;;;;;;;;;;;6.70;100.00;99897.47;4993328;28;19929;-85
2022/09/22 16:26:33;;;;;;;;;;;;;;;6.77;100.00;99895.53;4990808;28;20029;-85
2022/09/22 16:28:58;;;;;;;;;;;;;;;6.85;100.00;99897.97;4992973;28;19976;-85
2022/09/22 16:31:24;;;;;;;;;;;;;;;6.66;100.00;99895.81;4984830;28;20324;-85
2022/09/22 16:33:57;;;;;;;;;;;;;;;6.54;100.00;99898.72;4992546;28;19929;-84
2022/09/22 16:36:27;;;;;;;;;;;;;;;6.71;100.00;99896.53;5007277;28;20024;-86
2022/09/22 16:39:17;;;;;;;;;;;;;;;6.60;100.00;99895.94;4988747;28;19922;-85
2022/09/22 16:41:43;;;;;;;;;;;;;;;6.69;100.00;99894.88;4966532;28;19997;-85
2022/09/22 16:44:08;;;;;;;;;;;;;;;6.86;100.00;99899.69;4992130;28;19921;-85
2022/09/22 16:46:34;;;;;;;;;;;;;;;6.77;100.00;99894.69;4992787;28;20367;-85
2022/09/22 16:49:09;;;;;;;;;;;;;;;6.55;100.00;99906.59;4992193;28;20441;-85
2022/09/22 16:51:35;;;;;;;;;;;;;;;6.60;100.00;99903.00;4982906;28;19930;-85
2022/09/22 16:54:05;;;;;;;;;;;;;;;6.63;100.00;99902.91;4993992;28;20436;-86
2022/09/22 16:56:31;;;;;;;;;;;;;;;6.77;100.00;99905.22;4989906;28;19975;-85
2022/09/22 16:59:00;;;;;;;;;;;;;;;6.52;100.00;99903.19;4991878;28;19926;-85
2022/09/22 17:01:25;;;;;;;;;;;;;;;6.81;100.00;99902.47;4991558;28;19964;-85
2022/09/22 17:03:53;;;;;;;;;;;;;;;6.67;100.00;99897.53;4992918;28;19922;-84
2022/09/22 17:06:23;;;;;;;;;;;;;;;6.57;100.00;99898.66;4991741;28;19949;-85
2022/09/22 17:08:49;;;;;;;;;;;;;;;7.08;100.00;99900.88;4991968;28;20436;-85
2022/09/22 17:11:16;;;;;;;;;;;;;;;6.90;100.00;99898.72;4990683;28;20369;-85
2022/09/22 17:13:44;;;;;;;;;;;;;;;6.70;100.00;99905.38;4991323;28;19969;-86
2022/09/22 17:24:51;;;;;;;;;;;;;;;6.72;100.00;99916.72;5082152;23;19933;-83
2022/09/22 17:27:34;;;;;;;;;;;;;;;6.61;100.00;99910.00;4964945;28;20281;-83
2022/09/22 17:30:00;;;;;;;;;;;;;;;6.70;100.00;99913.28;4972031;28;20359;-84
2022/09/22 17:32:39;;;;;;;;;;;;;;;6.89;100.00;99918.06;4969184;28;20015;-84
2022/09/22 17:35:05;;;;;;;;;;;;;;;6.93;100.00;99917.09;4992075;28;19917;-83
2022/09/22 17:37:30;;;;;;;;;;;;;;;10.68;100.00;99907.28;4992519;28;20369;-84
2022/09/22 17:39:56;;;;;;;;;;;;;;;8.37;100.00;99913.84;4983211;28;20439;-83
2022/09/22 17:42:23;;;;;;;;;;;;;;;7.41;100.00;99914.03;4983394;28;19925;-85
2022/09/22 17:55:45;;;;;;;;;;;;;;;7.07;100.00;99909.69;5010024;28;19984;-83
2022/09/22 17:58:10;;;;;;;;;;;;;;;7.02;100.00;99916.84;4994892;28;20333;-84
2022/09/22 18:00:35;;;;;;;;;;;;;;;6.85;100.00;99919.06;4992490;28;19926;-83
2022/09/22 18:03:01;;;;;;;;;;;;;;;6.83;100.00;99913.81;5003066;28;19924;-84
2022/09/22 18:05:30;;;;;;;;;;;;;;;6.90;100.00;99917.16;5004549;28;20016;-84
2022/09/22 18:08:16;;;;;;;;;;;;;;;;;;;;;
2022/09/22 18:11:00;;;;;;;;;;;;;;;7.05;100.00;99913.25;5008200;28;20423;-84
2022/09/22 18:13:26;;;;;;;;;;;;;;;7.15;100.00;99917.38;5010659;28;19918;-84
2022/09/22 18:15:54;;;;;;;;;;;;;;;6.94;100.00;99921.47;5010825;28;19928;-87
2022/09/22 18:18:20;;;;;;;;;;;;;;;6.90;100.00;99928.53;5010673;28;19918;-84
2022/09/22 18:20:45;;;;;;;;;;;;;;;7.16;100.00;99934.06;5007209;28;19925;-87
2022/09/22 18:23:11;;;;;;;;;;;;;;;7.40;100.00;99928.13;5010314;28;19950;-87
2022/09/22 18:25:36;;;;;;;;;;;;;;;7.55;100.00;99926.84;5008613;28;19965;-89
2022/09/22 18:28:02;;;;;;;;;;;;;;;7.64;100.00;99925.69;5010962;28;20265;-87
2022/09/22 18:30:28;;;;;;;;;;;;;;;7.62;100.00;99925.72;5010357;28;19987;-87
2022/09/22 18:32:53;;;;;;;;;;;;;;;7.64;100.00;99930.97;5009846;28;20373;-87
2022/09/22 18:35:19;;;;;;;;;;;;;;;7.57;100.00;99925.00;5010384;28;19917;-84
2022/09/22 18:37:45;;;;;;;;;;;;;;;7.60;100.00;99930.19;5004221;28;20016;-89
2022/09/22 18:40:11;;;;;;;;;;;;;;;7.34;100.00;99936.22;5002869;28;19948;-87
2022/09/22 18:42:36;;;;;;;;;;;;;;;6.98;100.00;99944.16;5012121;28;20028;-89
2022/09/22 18:45:01;;;;;;;;;;;;;;;7.20;100.00;99930.44;5015467;28;20284;-90
2022/09/22 18:47:30;;;;;;;;;;;;;;;7.23;100.00;99941.75;5013236;28;20008;-92
2022/09/22 18:49:55;;;;;;;;;;;;;;;7.14;100.00;99943.78;5014083;28;19961;-86
2022/09/22 18:52:22;;;;;;;;;;;;;;;7.22;100.00;99950.56;4994951;28;20012;-91
2022/09/22 18:54:48;;;;;;;;;;;;;;;7.33;100.00;99939.75;5013963;28;19921;-91
2022/09/22 18:57:13;;;;;;;;;;;;;;;7.46;100.00;99935.84;5013994;28;20016;-90
2022/09/22 18:59:39;;;;;;;;;;;;;;;7.79;100.00;99950.78;5014703;28;19917;-89
2022/09/22 19:02:09;;;;;;;;;;;;;;;7.89;100.00;99946.97;5013611;28;19945;-87
2022/09/22 19:04:42;;;;;;;;;;;;;;;7.82;100.00;99953.34;4996454;28;20364;-89
2022/09/22 19:09:53;;;;;;;;;;;;;;;7.71;100.00;99958.91;5013969;28;20285;-90
2022/09/22 19:12:21;;;;;;;;;;;;;;;7.83;100.00;99952.41;4995308;28;19921;-87
2022/09/22 19:14:48;;;;;;;;;;;;;;;7.78;100.00;99960.44;5011927;28;20392;-89
2022/09/22 19:17:16;;;;;;;;;;;;;;;7.86;100.00;99952.31;4996977;28;19918;-88
2022/09/22 19:20:09;;;;;;;;;;;;;;;;;;;;;
2022/09/22 19:22:37;;;;;;;;;;;;;;;7.87;100.00;99953.22;5013283;28;19932;-89
2022/09/22 19:25:04;;;;;;;;;;;;;;;7.85;100.00;99950.63;5013848;28;20383;-91
2022/09/22 19:27:30;;;;;;;;;;;;;;;7.80;100.00;99948.09;5014787;28;19918;-89
2022/09/22 19:29:56;;;;;;;;;;;;;;;7.77;100.00;99948.19;5013068;28;20316;-87
2022/09/22 19:32:21;;;;;;;;;;;;;;;7.92;100.00;99953.94;5013278;28;19921;-89
2022/09/22 19:34:50;;;;;;;;;;;;;;;7.85;100.00;99950.63;5013358;28;19926;-88
2022/09/22 19:37:15;;;;;;;;;;;;;;;7.77;100.00;99945.56;5012620;28;19928;-88
2022/09/22 19:39:41;;;;;;;;;;;;;;;7.80;100.00;99953.38;5013221;28;19918;-90
2022/09/22 19:42:07;;;;;;;;;;;;;;;7.93;100.00;99948.59;5012287;28;19921;-92
2022/09/22 19:44:32;;;;;;;;;;;;;;;7.96;100.00;99945.00;5013855;28;20388;-89
2022/09/22 19:46:58;;;;;;;;;;;;;;;7.56;100.00;99946.16;5008967;28;19925;-90
2022/09/22 19:49:24;;;;;;;;;;;;;;;7.74;100.00;99950.91;5005314;28;20005;-89
2022/09/22 19:51:49;;;;;;;;;;;;;;;7.51;100.00;99942.78;5008991;28;20090;-89
2022/09/22 19:54:15;;;;;;;;;;;;;;;7.26;100.00;99946.94;5012115;28;20440;-88
2022/09/22 19:56:40;;;;;;;;;;;;;;;6.95;100.00;99944.25;5011470;28;20016;-87
2022/09/22 19:59:09;;;;;;;;;;;;;;;7.01;100.00;99941.44;5012621;28;20004;-88
2022/09/22 20:01:36;;;;;;;;;;;;;;;7.08;100.00;99937.78;5013332;28;19921;-87
2022/09/22 20:04:02;;;;;;;;;;;;;;;6.96;100.00;99942.50;5013410;28;19921;-89
2022/09/22 20:06:27;;;;;;;;;;;;;;;6.98;100.00;99944.16;5013010;28;19922;-87
2022/09/22 20:09:01;;;;;;;;;;;;;;;6.90;100.00;99939.09;4993172;28;19926;-87
2022/09/22 20:11:27;;;;;;;;;;;;;;;6.91;100.00;99935.56;4993958;28;19921;-89
2022/09/22 20:16:39;;;;;;;;;;;;;;;6.88;100.00;99929.50;5012626;28;19952;-90
2022/09/22 20:19:04;;;;;;;;;;;;;;;6.84;100.00;99930.47;4994995;28;19921;-89
2022/09/22 20:21:32;;;;;;;;;;;;;;;6.89;100.00;99925.94;4996457;28;19925;-88
2022/09/22 20:23:57;;;;;;;;;;;;;;;6.88;100.00;99927.72;5011925;28;20329;-88
2022/09/22 20:26:22;;;;;;;;;;;;;;;6.88;100.00;99919.84;5011303;28;20459;-88
2022/09/22 20:28:48;;;;;;;;;;;;;;;7.01;100.00;99923.00;5013163;28;19917;-88
2022/09/22 20:31:13;;;;;;;;;;;;;;;6.94;100.00;99918.81;5012162;28;19925;-89
2022/09/22 20:33:39;;;;;;;;;;;;;;;6.94;100.00;99918.81;5011884;28;19921;-89
2022/09/22 20:36:05;;;;;;;;;;;;;;;6.94;100.00;99913.56;5011725;28;19933;-87
2022/09/22 20:38:30;;;;;;;;;;;;;;;6.86;100.00;99919.00;5012440;28;20396;-89
2022/09/22 20:40:59;;;;;;;;;;;;;;;6.91;100.00;99919.75;5010807;28;20008;-86
2022/09/22 20:43:24;;;;;;;;;;;;;;;6.94;100.00;99917.94;5012832;28;19944;-89
2022/09/22 20:45:49;;;;;;;;;;;;;;;6.99;100.00;99916.94;4995368;28;19921;-89
2022/09/22 20:48:15;;;;;;;;;;;;;;;6.93;100.00;99919.72;4994733;28;20400;-88
2022/09/22 20:50:41;;;;;;;;;;;;;;;6.89;100.00;99911.03;5010960;28;19926;-89
2022/09/22 20:53:06;;;;;;;;;;;;;;;6.96;100.00;99910.88;4994912;28;19944;-87
2022/09/22 20:55:31;;;;;;;;;;;;;;;6.97;100.00;99902.91;4993613;28;19926;-88
2022/09/22 20:57:58;;;;;;;;;;;;;;;6.97;100.00;99908.19;5011997;28;19921;-90
2022/09/22 21:00:23;;;;;;;;;;;;;;;6.95;100.00;99899.47;5004938;28;19976;-89
2022/09/22 21:02:48;;;;;;;;;;;;;;;6.89;100.00;99903.13;4990024;28;19925;-89
2022/09/22 21:05:14;;;;;;;;;;;;;;;6.96;100.00;99897.72;4994536;28;20381;-89
2022/09/22 21:07:39;;;;;;;;;;;;;;;6.97;100.00;99897.63;5011690;28;19967;-88
2022/09/22 21:12:49;;;;;;;;;;;;;;;7.02;100.00;99889.63;5011990;28;19943;-89
2022/09/22 21:15:14;;;;;;;;;;;;;;;6.99;100.00;99890.59;4995143;28;20352;-88
2022/09/22 21:17:41;;;;;;;;;;;;;;;6.96;100.00;99895.94;4994213;28;20016;-87
2022/09/22 21:20:07;;;;;;;;;;;;;;;6.98;100.00;99885.34;4994428;28;20020;-89
2022/09/22 21:22:32;;;;;;;;;;;;;;;7.01;100.00;99891.41;4993853;28;20000;-89
2022/09/22 21:24:57;;;;;;;;;;;;;;;7.00;100.00;99887.03;5012161;28;20292;-90
2022/09/22 21:27:26;;;;;;;;;;;;;;;7.04;100.00;99888.69;4994881;28;19983;-93
2022/09/22 21:29:52;;;;;;;;;;;;;;;7.01;100.00;99887.91;4995108;28;19940;-89
2022/09/22 21:32:18;;;;;;;;;;;;;;;6.99;100.00;99894.97;4995163;28;19917;-89
2022/09/22 21:34:44;;;;;;;;;;;;;;;7.01;100.00;99891.41;4994131;28;19949;-90
2022/09/22 21:37:09;;;;;;;;;;;;;;;6.98;100.00;99888.84;4994947;28;19960;-88
2022/09/22 21:39:34;;;;;;;;;;;;;;;6.98;100.00;99883.56;4994418;28;19929;-90
2022/09/22 21:42:00;;;;;;;;;;;;;;;7.04;100.00;99887.81;5009739;28;20388;-89
2022/09/22 21:44:25;;;;;;;;;;;;;;;7.04;100.00;99888.69;4995208;28;20008;-89
2022/09/22 21:46:51;;;;;;;;;;;;;;;7.02;100.00;99881.72;5010679;28;20348;-91
2022/09/22 21:49:16;;;;;;;;;;;;;;;7.02;100.00;99884.34;5010712;28;19926;-88
2022/09/22 21:51:43;;;;;;;;;;;;;;;7.05;100.00;99889.53;4994446;28;19922;-89
2022/09/22 21:54:18;;;;;;;;;;;;;;;7.04;100.00;99883.41;4994897;28;20399;-87
2022/09/22 21:56:43;;;;;;;;;;;;;;;7.05;100.00;99879.88;5002172;28;19917;-87
2022/09/22 21:59:10;;;;;;;;;;;;;;;7.03;100.00;99879.03;4993343;28;19932;-87
2022/09/22 22:01:36;;;;;;;;;;;;;;;7.07;100.00;99874.56;4991614;28;19922;-89
2022/09/22 22:04:06;;;;;;;;;;;;;;;7.07;100.00;99871.94;5011288;28;19956;-89
2022/09/22 22:06:36;;;;;;;;;;;;;;;7.11;100.00;99876.19;5010464;28;19921;-88